Time;durP1;ratioP1;P1;durP2;ratioP2;P2;SDS_P1;SDS_P2;PMS_P1;PMS_P2;Temp;Humidity;BMP_temperature;BMP_pressure;BME280_temperature;BME280_humidity;BME280_pressure;Samples;Min_cycle;Max_cycle;Signal;HPM_P1;HPM_P2
2020/12/29 00:01:39;;;;;;;20.42;12.23;;;4.20;93.70;;;;;;5085644;28;20039;-49
2020/12/29 00:04:10;;;;;;;17.42;11.68;;;4.20;93.50;;;;;;5093969;28;20057;-48
2020/12/29 00:06:53;;;;;;;17.13;11.68;;;4.20;93.60;;;;;;5085278;28;20092;-48
2020/12/29 00:09:24;;;;;;;16.40;11.43;;;4.10;93.60;;;;;;5092790;28;20089;-48
2020/12/29 00:11:50;;;;;;;18.23;12.25;;;4.10;93.70;;;;;;5094502;28;20108;-49
2020/12/29 00:14:17;;;;;;;17.80;12.55;;;4.20;93.70;;;;;;5093395;28;20075;-49
2020/12/29 00:16:43;;;;;;;19.27;12.95;;;4.20;93.80;;;;;;5084420;28;20032;-50
2020/12/29 00:19:14;;;;;;;19.58;12.38;;;4.20;93.70;;;;;;5094751;28;20050;-48
2020/12/29 00:21:40;;;;;;;17.85;11.63;;;4.40;93.80;;;;;;5084208;28;20080;-47
2020/12/29 00:24:06;;;;;;;18.65;13.20;;;4.20;93.70;;;;;;5093359;28;20052;-47
2020/12/29 00:26:33;;;;;;;20.58;13.60;;;4.20;93.60;;;;;;5094462;28;20044;-47
2020/12/29 00:29:00;;;;;;;20.08;13.10;;;4.30;93.50;;;;;;5093313;28;20055;-50
2020/12/29 00:31:27;;;;;;;21.40;13.85;;;4.30;93.50;;;;;;5109718;28;20114;-47
2020/12/29 00:33:56;;;;;;;20.88;13.52;;;4.30;93.50;;;;;;5092333;28;20080;-48
2020/12/29 00:36:24;;;;;;;21.73;13.93;;;4.20;93.60;;;;;;5092315;28;20039;-50
2020/12/29 00:38:50;;;;;;;20.77;13.13;;;4.20;93.70;;;;;;5092687;28;20032;-50
2020/12/29 00:41:15;;;;;;;21.75;14.05;;;4.30;93.60;;;;;;5093272;28;20040;-51
2020/12/29 00:43:42;;;;;;;21.75;13.88;;;4.30;93.40;;;;;;5092294;28;20493;-48
2020/12/29 00:46:13;;;;;;;22.10;14.43;;;4.30;93.30;;;;;;5092251;28;20052;-48
2020/12/29 00:48:39;;;;;;;24.17;14.75;;;4.30;93.40;;;;;;5092395;28;20405;-51
2020/12/29 00:51:19;;;;;;;22.50;14.30;;;4.30;93.40;;;;;;5092692;28;20043;-48
2020/12/29 00:53:46;;;;;;;26.15;15.35;;;4.30;93.50;;;;;;5084718;28;20040;-50
2020/12/29 00:56:12;;;;;;;25.30;14.70;;;4.20;93.50;;;;;;5092591;28;20064;-49
2020/12/29 00:58:38;;;;;;;24.83;15.52;;;4.20;93.60;;;;;;5092313;28;20040;-47
2020/12/29 01:01:07;;;;;;;23.65;14.95;;;4.20;93.60;;;;;;5092029;28;20044;-48
2020/12/29 01:03:34;;;;;;;25.27;15.60;;;4.20;93.50;;;;;;5090791;28;20047;-47
2020/12/29 01:05:59;;;;;;;23.52;14.88;;;4.30;93.40;;;;;;5092160;28;20040;-49
2020/12/29 01:08:25;;;;;;;24.52;15.75;;;4.20;93.60;;;;;;5092347;28;20043;-48
2020/12/29 01:10:56;;;;;;;22.85;14.90;;;4.20;93.40;;;;;;5092211;28;20040;-50
2020/12/29 01:13:23;;;;;;;22.98;15.82;;;4.20;93.60;;;;;;5082304;28;20514;-48
2020/12/29 01:15:50;;;;;;;23.60;15.45;;;4.10;93.70;;;;;;5092070;28;20039;-49
2020/12/29 01:18:16;;;;;;;25.23;16.20;;;4.10;93.80;;;;;;5091894;28;20048;-48
2020/12/29 01:20:42;;;;;;;24.83;15.65;;;4.10;93.90;;;;;;5092635;28;20036;-50
2020/12/29 01:23:07;;;;;;;25.13;15.38;;;4.10;93.90;;;;;;5089137;28;20122;-48
2020/12/29 01:25:33;;;;;;;25.10;15.70;;;4.10;94.00;;;;;;5091881;28;20467;-47
2020/12/29 01:27:59;;;;;;;25.27;15.85;;;4.10;93.90;;;;;;5091609;28;20044;-50
2020/12/29 01:30:24;;;;;;;26.67;16.63;;;4.10;94.00;;;;;;5091736;28;20514;-48
2020/12/29 01:32:50;;;;;;;26.48;15.90;;;4.10;94.00;;;;;;5091334;28;20040;-49
2020/12/29 01:35:17;;;;;;;26.35;16.63;;;4.10;94.00;;;;;;5090515;28;20508;-48
2020/12/29 01:37:44;;;;;;;24.30;16.10;;;4.10;94.10;;;;;;5091483;28;20042;-48
2020/12/29 01:40:11;;;;;;;24.92;16.05;;;4.20;94.00;;;;;;5089956;28;20419;-49
2020/12/29 01:42:39;;;;;;;25.50;16.63;;;4.20;94.10;;;;;;5091192;28;20064;-48
2020/12/29 01:45:09;;;;;;;26.35;16.20;;;4.20;93.90;;;;;;5087117;28;20469;-48
2020/12/29 01:47:38;;;;;;;23.92;15.85;;;4.20;93.90;;;;;;5091338;28;20415;-50
2020/12/29 01:50:10;;;;;;;26.10;16.73;;;4.20;94.00;;;;;;5091387;28;20389;-49
2020/12/29 01:52:38;;;;;;;25.40;16.08;;;4.20;93.90;;;;;;5090163;28;20803;-48
2020/12/29 01:55:05;;;;;;;30.17;16.73;;;4.20;93.90;;;;;;5089447;28;20047;-47
2020/12/29 01:57:32;;;;;;;24.45;15.82;;;4.20;93.80;;;;;;5095677;28;20507;-48
2020/12/29 01:59:58;;;;;;;25.52;17.08;;;4.20;93.90;;;;;;5091475;28;20119;-49
2020/12/29 02:02:24;;;;;;;27.10;16.77;;;4.20;94.00;;;;;;5090729;28;20507;-48
2020/12/29 02:04:50;;;;;;;26.00;15.55;;;4.20;94.30;;;;;;5091625;28;20104;-48
2020/12/29 02:07:17;;;;;;;27.10;16.50;;;4.20;94.00;;;;;;5090650;28;20111;-48
2020/12/29 02:09:43;;;;;;;26.83;17.08;;;4.20;94.00;;;;;;5092738;28;20040;-49
2020/12/29 02:12:27;;;;;;;26.38;16.65;;;4.20;94.00;;;;;;5091010;28;20407;-49
2020/12/29 02:14:53;;;;;;;26.00;16.73;;;4.30;94.00;;;;;;5070169;28;20036;-48
2020/12/29 02:17:21;;;;;;;27.92;17.08;;;4.30;94.10;;;;;;5087634;28;20412;-48
2020/12/29 02:19:47;;;;;;;26.52;16.73;;;4.20;93.90;;;;;;5090495;28;20164;-48
2020/12/29 02:22:21;;;;;;;28.65;17.52;;;4.30;93.90;;;;;;5091047;28;20040;-48
2020/12/29 02:24:52;;;;;;;27.13;16.77;;;4.30;93.90;;;;;;5091112;28;20252;-49
2020/12/29 02:27:20;;;;;;;31.00;17.45;;;4.20;93.90;;;;;;5091632;28;20376;-48
2020/12/29 02:29:47;;;;;;;30.55;18.95;;;4.20;94.00;;;;;;5090744;28;20411;-48
2020/12/29 02:32:14;;;;;;;29.83;17.85;;;4.20;94.00;;;;;;5090641;28;20071;-48
2020/12/29 02:34:41;;;;;;;28.52;17.90;;;4.20;94.00;;;;;;5089268;28;20511;-49
2020/12/29 02:37:09;;;;;;;28.08;18.02;;;4.20;94.00;;;;;;5091573;28;20040;-50
2020/12/29 02:39:39;;;;;;;28.70;18.05;;;4.20;94.00;;;;;;5091018;28;20450;-49
2020/12/29 02:42:09;;;;;;;31.15;18.45;;;4.20;93.90;;;;;;5079661;28;20131;-50
2020/12/29 02:44:36;;;;;;;29.42;17.90;;;4.30;94.00;;;;;;5090885;28;20071;-48
2020/12/29 02:47:02;;;;;;;27.33;17.83;;;4.20;93.90;;;;;;5090624;28;20055;-50
2020/12/29 02:49:28;;;;;;;31.30;18.02;;;4.20;94.00;;;;;;5091178;28;20044;-48
2020/12/29 02:51:56;;;;;;;30.48;18.63;;;4.20;94.10;;;;;;5090239;28;20357;-48
2020/12/29 02:54:24;;;;;;;32.25;20.48;;;4.30;94.00;;;;;;5090374;28;20385;-48
2020/12/29 02:56:50;;;;;;;32.17;18.88;;;4.30;94.00;;;;;;5091714;28;20047;-48
2020/12/29 02:59:16;;;;;;;31.95;19.70;;;4.20;94.00;;;;;;5094842;28;20043;-48
2020/12/29 03:01:43;;;;;;;30.88;18.58;;;4.30;94.10;;;;;;5093911;28;20032;-49
2020/12/29 03:04:10;;;;;;;31.25;18.30;;;4.20;94.00;;;;;;5093484;28;20059;-50
2020/12/29 03:06:37;;;;;;;29.73;18.27;;;4.30;94.10;;;;;;5093298;28;20047;-49
2020/12/29 03:09:03;;;;;;;30.05;18.25;;;4.20;94.10;;;;;;5094211;28;20476;-48
2020/12/29 03:11:30;;;;;;;32.67;19.42;;;4.20;94.10;;;;;;5094741;28;20043;-48
2020/12/29 03:13:58;;;;;;;32.55;19.52;;;4.20;94.10;;;;;;5093392;28;20078;-48
2020/12/29 03:16:25;;;;;;;32.72;18.80;;;4.20;94.00;;;;;;5094515;28;20040;-50
2020/12/29 03:18:51;;;;;;;34.65;20.10;;;4.20;94.00;;;;;;5093032;28;20480;-50
2020/12/29 03:21:17;;;;;;;34.25;19.88;;;4.20;94.00;;;;;;5093259;28;20043;-47
2020/12/29 03:23:43;;;;;;;32.25;19.27;;;4.20;94.00;;;;;;5103395;28;20411;-48
2020/12/29 03:26:09;;;;;;;36.83;21.13;;;4.20;94.10;;;;;;5093955;28;20404;-48
2020/12/29 03:28:36;;;;;;;34.35;19.55;;;4.20;94.10;;;;;;5094080;28;20044;-49
2020/12/29 03:31:02;;;;;;;36.13;19.77;;;4.20;94.10;;;;;;5093797;28;20040;-48
2020/12/29 03:33:28;;;;;;;36.45;19.98;;;4.20;94.10;;;;;;5093621;28;20040;-48
2020/12/29 03:35:54;;;;;;;35.08;19.92;;;4.30;94.00;;;;;;5093789;28;20040;-48
2020/12/29 03:38:21;;;;;;;31.52;19.20;;;4.30;93.80;;;;;;5094108;28;20097;-48
2020/12/29 03:40:48;;;;;;;31.20;18.83;;;4.20;93.90;;;;;;5094058;28;20047;-50
2020/12/29 03:43:14;;;;;;;33.72;19.83;;;4.20;94.00;;;;;;5092821;28;20046;-50
2020/12/29 03:45:41;;;;;;;33.10;18.77;;;4.10;94.10;;;;;;5094475;28;20051;-49
2020/12/29 03:48:09;;;;;;;37.03;21.48;;;4.10;94.10;;;;;;5093181;28;20051;-48
2020/12/29 03:50:37;;;;;;;36.72;20.10;;;4.10;94.10;;;;;;5094106;28;20048;-49
2020/12/29 03:53:03;;;;;;;37.50;20.38;;;4.10;94.20;;;;;;5101438;28;20107;-48
2020/12/29 03:55:28;;;;;;;39.85;21.23;;;4.10;94.20;;;;;;5094297;28;20055;-48
2020/12/29 03:57:54;;;;;;;34.85;20.10;;;4.10;94.20;;;;;;5093300;28;20040;-50
2020/12/29 04:00:19;;;;;;;35.65;20.70;;;4.10;94.30;;;;;;5093203;28;20765;-50
2020/12/29 04:02:45;;;;;;;41.53;21.95;;;4.10;94.20;;;;;;5092593;28;20119;-48
2020/12/29 04:05:11;;;;;;;38.63;20.90;;;4.10;94.20;;;;;;5093704;28;20044;-47
2020/12/29 04:07:37;;;;;;;37.15;21.42;;;4.20;94.10;;;;;;5092395;28;20440;-48
2020/12/29 04:10:06;;;;;;;38.47;21.80;;;4.10;94.10;;;;;;5093887;28;20097;-49
2020/12/29 04:12:33;;;;;;;37.70;21.48;;;4.10;94.20;;;;;;5098667;28;20115;-52
2020/12/29 04:14:58;;;;;;;35.25;21.23;;;4.10;94.10;;;;;;5093240;28;20078;-50
2020/12/29 04:17:26;;;;;;;36.45;21.52;;;4.10;94.20;;;;;;5093228;28;20070;-50
2020/12/29 04:19:52;;;;;;;38.90;21.63;;;4.20;94.20;;;;;;5091031;28;20120;-49
2020/12/29 04:22:17;;;;;;;38.33;22.45;;;4.20;94.20;;;;;;5092317;28;20641;-49
2020/12/29 04:24:43;;;;;;;39.47;22.52;;;4.10;94.10;;;;;;5091527;28;20430;-50
2020/12/29 04:27:09;;;;;;;44.25;22.67;;;4.10;94.20;;;;;;5092887;28;20110;-49
2020/12/29 04:29:35;;;;;;;39.70;22.63;;;4.10;94.20;;;;;;5092658;28;20450;-50
2020/12/29 04:32:01;;;;;;;43.53;23.85;;;4.10;94.20;;;;;;5093461;28;20079;-50
2020/12/29 04:34:27;;;;;;;42.08;23.25;;;4.10;94.30;;;;;;5092173;28;20048;-49
2020/12/29 04:36:54;;;;;;;42.65;22.85;;;4.10;94.50;;;;;;5092865;28;20043;-50
2020/12/29 04:39:23;;;;;;;43.13;23.75;;;4.10;94.20;;;;;;5092182;28;20056;-49
2020/12/29 04:41:57;;;;;;;44.72;24.15;;;4.10;94.40;;;;;;5092727;28;20048;-48
2020/12/29 04:44:23;;;;;;;42.85;23.92;;;4.10;94.30;;;;;;5092456;28;20052;-51
2020/12/29 04:46:50;;;;;;;47.17;23.58;;;4.10;94.30;;;;;;5078949;28;20072;-50
2020/12/29 04:49:16;;;;;;;45.00;22.70;;;4.10;94.30;;;;;;5091568;28;20067;-47
2020/12/29 04:51:43;;;;;;;45.05;23.92;;;4.10;94.30;;;;;;5092369;28;20068;-48
2020/12/29 04:54:14;;;;;;;44.50;24.88;;;4.10;94.30;;;;;;5092394;28;20047;-48
2020/12/29 04:56:41;;;;;;;46.35;23.50;;;4.10;94.30;;;;;;5092286;28;20040;-49
2020/12/29 04:59:07;;;;;;;47.53;24.75;;;4.10;94.30;;;;;;5092290;28;20051;-49
2020/12/29 05:01:37;;;;;;;48.78;24.98;;;4.10;94.30;;;;;;5092884;28;20040;-48
2020/12/29 05:04:02;;;;;;;48.35;24.08;;;4.10;94.30;;;;;;5091043;28;20031;-48
2020/12/29 05:06:29;;;;;;;48.05;24.38;;;4.10;94.30;;;;;;5092739;28;20479;-47
2020/12/29 05:08:56;;;;;;;46.50;24.33;;;4.10;94.30;;;;;;5091840;28;20044;-48
2020/12/29 05:11:30;;;;;;;43.05;23.00;;;4.10;94.30;;;;;;5092394;28;20035;-50
2020/12/29 05:13:56;;;;;;;45.88;23.17;;;4.10;94.40;;;;;;5091664;28;20377;-49
2020/12/29 05:16:22;;;;;;;46.13;24.20;;;4.10;94.40;;;;;;5092633;28;20092;-49
2020/12/29 05:18:49;;;;;;;55.85;25.67;;;4.20;94.50;;;;;;5090937;28;20123;-48
2020/12/29 05:21:15;;;;;;;47.15;25.05;;;4.20;94.40;;;;;;5090560;28;20407;-51
2020/12/29 05:23:41;;;;;;;47.47;24.15;;;4.20;94.40;;;;;;5091603;28;20412;-49
2020/12/29 05:26:07;;;;;;;45.17;23.48;;;4.20;94.40;;;;;;5091695;28;20127;-50
2020/12/29 05:28:37;;;;;;;48.92;24.55;;;4.20;94.40;;;;;;5092550;28;20047;-49
2020/12/29 05:31:05;;;;;;;47.38;25.23;;;4.20;94.40;;;;;;5091478;28;20446;-47
2020/12/29 05:33:31;;;;;;;55.65;25.85;;;4.20;94.40;;;;;;5091544;28;20040;-49
2020/12/29 05:36:01;;;;;;;50.13;25.02;;;4.20;94.40;;;;;;5091599;28;20043;-47
2020/12/29 05:38:30;;;;;;;50.30;25.60;;;4.30;94.40;;;;;;5092783;28;20142;-49
2020/12/29 05:40:56;;;;;;;57.05;27.05;;;4.20;94.40;;;;;;5090591;28;20105;-48
2020/12/29 05:43:30;;;;;;;58.60;27.85;;;4.30;94.30;;;;;;5090901;28;20454;-47
2020/12/29 05:46:05;;;;;;;50.05;25.33;;;4.30;94.30;;;;;;5090977;28;20139;-48
2020/12/29 05:48:33;;;;;;;52.53;26.40;;;4.30;94.30;;;;;;5073613;28;20050;-47
2020/12/29 05:51:14;;;;;;;45.72;25.42;;;4.30;94.40;;;;;;5091447;28;20085;-48
2020/12/29 05:53:42;;;;;;;54.30;26.20;;;4.20;94.30;;;;;;5089953;28;20050;-50
2020/12/29 05:56:08;;;;;;;55.70;26.33;;;4.20;94.30;;;;;;5073540;28;20048;-49
2020/12/29 05:58:35;;;;;;;52.65;26.38;;;4.20;94.30;;;;;;5091782;28;20121;-48
2020/12/29 06:01:01;;;;;;;49.88;25.70;;;4.50;94.70;;;;;;5091888;28;20066;-51
2020/12/29 06:03:29;;;;;;;56.10;26.42;;;4.20;94.40;;;;;;5090803;28;20040;-48
2020/12/29 06:05:59;;;;;;;55.70;26.67;;;4.20;94.40;;;;;;5086950;28;20067;-48
2020/12/29 06:08:27;;;;;;;52.55;25.73;;;4.20;94.40;;;;;;5091712;28;20499;-49
2020/12/29 06:11:03;;;;;;;54.17;25.70;;;4.20;94.40;;;;;;5090730;28;20044;-48
2020/12/29 06:13:36;;;;;;;56.85;27.17;;;4.30;94.40;;;;;;5091355;28;20074;-48
2020/12/29 06:16:03;;;;;;;55.40;26.98;;;4.20;94.40;;;;;;5090910;28;20389;-48
2020/12/29 06:18:37;;;;;;;52.10;26.25;;;4.30;94.40;;;;;;5092007;28;20051;-48
2020/12/29 06:21:05;;;;;;;58.38;25.95;;;4.30;94.40;;;;;;5089890;28;20032;-48
2020/12/29 06:23:43;;;;;;;61.63;27.90;;;4.30;94.40;;;;;;5091692;28;20054;-48
2020/12/29 06:26:09;;;;;;;55.58;25.60;;;4.30;94.40;;;;;;5080415;28;20115;-50
2020/12/29 06:28:54;;;;;;;57.42;25.10;;;4.30;94.30;;;;;;5092641;28;20676;-50
2020/12/29 06:31:30;;;;;;;61.97;26.65;;;4.30;94.40;;;;;;5094631;28;20493;-48
2020/12/29 06:33:57;;;;;;;64.15;25.75;;;4.20;94.30;;;;;;5108184;28;20123;-50
2020/12/29 06:36:28;;;;;;;58.17;27.05;;;4.20;94.40;;;;;;5095027;28;20667;-49
2020/12/29 06:38:58;;;;;;;58.65;27.10;;;4.20;94.40;;;;;;5094981;28;20130;-48
2020/12/29 06:41:24;;;;;;;59.92;27.48;;;4.20;94.30;;;;;;5095265;28;20036;-48
2020/12/29 06:43:50;;;;;;;56.10;26.58;;;4.20;94.40;;;;;;5083516;28;20189;-48
2020/12/29 06:46:16;;;;;;;59.38;28.00;;;4.20;94.40;;;;;;5096134;28;20075;-51
2020/12/29 06:48:42;;;;;;;58.13;27.00;;;4.20;94.40;;;;;;5099215;28;20471;-50
2020/12/29 06:51:14;;;;;;;54.90;25.45;;;4.10;94.40;;;;;;5116944;28;20031;-49
2020/12/29 06:53:41;;;;;;;57.58;25.92;;;4.20;94.40;;;;;;5088170;28;20059;-51
2020/12/29 06:56:19;;;;;;;59.25;27.27;;;4.20;94.50;;;;;;5103935;28;20546;-49
2020/12/29 06:58:45;;;;;;;62.63;27.50;;;4.20;94.40;;;;;;5088225;28;20051;-51
2020/12/29 07:01:32;;;;;;;63.25;27.55;;;4.20;94.40;;;;;;5106945;28;20060;-49
2020/12/29 07:04:00;;;;;;;64.90;28.58;;;4.20;94.40;;;;;;5104102;28;20044;-49
2020/12/29 07:06:36;;;;;;;57.80;26.00;;;4.20;94.40;;;;;;5089037;28;20413;-50
2020/12/29 07:09:24;;;;;;;61.28;27.70;;;4.20;94.30;;;;;;5097137;28;20058;-49
2020/12/29 07:12:07;;;;;;;59.33;26.02;;;4.20;94.40;;;;;;5100279;28;20036;-48
2020/12/29 07:14:35;;;;;;;63.05;25.05;;;4.10;94.30;;;;;;5099024;28;20036;-50
2020/12/29 07:17:04;;;;;;;59.95;26.10;;;4.10;94.30;;;;;;5099673;28;20101;-48
2020/12/29 07:19:30;;;;;;;63.70;25.63;;;4.10;94.40;;;;;;5098248;28;20051;-50
2020/12/29 07:21:57;;;;;;;57.38;22.10;;;4.00;94.40;;;;;;5098475;28;20036;-49
2020/12/29 07:24:27;;;;;;;50.72;21.90;;;4.00;94.30;;;;;;5098593;28;20107;-49
2020/12/29 07:26:56;;;;;;;52.67;22.23;;;4.00;94.20;;;;;;5098109;28;20058;-48
2020/12/29 07:29:22;;;;;;;52.97;22.67;;;3.90;94.20;;;;;;5099832;28;20044;-48
2020/12/29 07:31:49;;;;;;;51.58;22.42;;;3.90;94.20;;;;;;5098487;28;20039;-49
2020/12/29 07:34:15;;;;;;;45.10;22.45;;;3.90;94.30;;;;;;5095278;28;20420;-48
2020/12/29 07:36:49;;;;;;;45.60;22.30;;;3.90;94.30;;;;;;5100258;28;20044;-51
2020/12/29 07:39:17;;;;;;;42.40;21.52;;;3.90;94.30;;;;;;5097415;28;20392;-48
2020/12/29 07:41:45;;;;;;;42.10;21.17;;;3.90;94.30;;;;;;5094490;28;20464;-48
2020/12/29 07:44:10;;;;;;;40.90;22.40;;;3.90;94.20;;;;;;5097372;28;20044;-49
2020/12/29 07:46:36;;;;;;;41.63;21.92;;;3.90;94.10;;;;;;5094184;28;20476;-48
2020/12/29 07:49:04;;;;;;;45.60;22.30;;;4.00;94.20;;;;;;5095208;28;20078;-50
2020/12/29 07:51:30;;;;;;;41.20;21.98;;;3.90;94.10;;;;;;5097746;28;20500;-49
2020/12/29 07:54:06;;;;;;;41.83;21.95;;;4.00;94.10;;;;;;5093652;28;20623;-48
2020/12/29 07:56:32;;;;;;;41.75;22.73;;;3.90;94.10;;;;;;5096922;28;20677;-51
2020/12/29 07:59:11;;;;;;;40.63;22.25;;;4.00;94.10;;;;;;5091553;28;20062;-51
2020/12/29 08:01:50;;;;;;;39.85;21.77;;;4.00;94.10;;;;;;5092226;28;20440;-48
2020/12/29 08:04:33;;;;;;;39.28;21.38;;;4.00;94.10;;;;;;5104807;28;20441;-47
2020/12/29 08:07:06;;;;;;;42.35;21.77;;;4.00;94.10;;;;;;5094138;28;20043;-51
2020/12/29 08:09:44;;;;;;;37.45;21.80;;;4.00;94.10;;;;;;5093229;28;20043;-48
2020/12/29 08:12:13;;;;;;;42.13;22.83;;;4.10;94.00;;;;;;5090475;28;20059;-48
2020/12/29 08:14:40;;;;;;;40.67;21.88;;;4.10;94.00;;;;;;5092304;28;20117;-47
2020/12/29 08:17:07;;;;;;;44.35;22.48;;;4.10;94.00;;;;;;5092707;28;20047;-48
2020/12/29 08:19:32;;;;;;;42.30;22.48;;;4.10;94.00;;;;;;5092245;28;20068;-47
2020/12/29 08:22:06;;;;;;;45.33;24.10;;;4.10;93.90;;;;;;5091970;28;20058;-49
2020/12/29 08:24:32;;;;;;;44.15;22.70;;;4.10;93.90;;;;;;5091336;28;20066;-48
2020/12/29 08:26:58;;;;;;;50.55;23.77;;;4.10;94.00;;;;;;5096014;28;20052;-51
2020/12/29 08:29:25;;;;;;;43.63;23.15;;;4.10;93.90;;;;;;5090291;28;20426;-48
2020/12/29 08:32:09;;;;;;;50.63;23.92;;;4.10;93.90;;;;;;5092503;28;20040;-48
2020/12/29 08:34:37;;;;;;;51.65;24.20;;;4.10;94.00;;;;;;5104002;28;20092;-47
2020/12/29 08:37:05;;;;;;;47.53;23.20;;;4.10;94.00;;;;;;5089323;28;20126;-48
2020/12/29 08:39:33;;;;;;;49.08;25.00;;;4.10;94.00;;;;;;5089582;28;20107;-48
2020/12/29 08:42:02;;;;;;;50.60;23.90;;;4.10;94.00;;;;;;5093351;28;20128;-49
2020/12/29 08:44:30;;;;;;;49.78;24.17;;;4.10;94.00;;;;;;5090293;28;20074;-49
2020/12/29 08:46:55;;;;;;;50.38;22.90;;;4.10;93.90;;;;;;5093813;28;20044;-49
2020/12/29 08:49:29;;;;;;;50.72;23.73;;;4.10;93.90;;;;;;5092345;28;20054;-50
2020/12/29 08:51:55;;;;;;;50.28;23.98;;;4.20;94.00;;;;;;5090678;28;20118;-50
2020/12/29 08:54:21;;;;;;;56.78;24.98;;;4.20;94.00;;;;;;5090996;28;20050;-49
2020/12/29 08:56:47;;;;;;;48.28;23.25;;;4.20;94.00;;;;;;5091295;28;20044;-48
2020/12/29 08:59:19;;;;;;;50.17;23.88;;;4.20;94.00;;;;;;5092424;28;20036;-48
2020/12/29 09:01:55;;;;;;;49.73;24.67;;;4.20;94.00;;;;;;5090649;28;20044;-50
2020/12/29 09:04:29;;;;;;;50.53;23.45;;;4.20;94.00;;;;;;5089566;28;20293;-49
2020/12/29 09:07:11;;;;;;;47.60;23.73;;;4.20;94.00;;;;;;5088544;28;20044;-49
2020/12/29 09:09:50;;;;;;;49.90;22.65;;;4.20;94.00;;;;;;5088452;28;20051;-49
2020/12/29 09:12:20;;;;;;;44.55;21.77;;;4.20;94.10;;;;;;5089424;28;20036;-50
2020/12/29 09:15:04;;;;;;;46.95;21.63;;;4.20;94.10;;;;;;5091077;28;20039;-49
2020/12/29 09:17:32;;;;;;;46.17;22.02;;;4.20;94.10;;;;;;5089861;28;20040;-49
2020/12/29 09:20:18;;;;;;;43.72;22.00;;;4.20;94.10;;;;;;5091719;28;20056;-50
2020/12/29 09:23:12;;;;;;;45.05;21.23;;;4.20;94.00;;;;;;5090104;28;20042;-49
2020/12/29 09:25:42;;;;;;;39.75;19.92;;;4.30;94.10;;;;;;5073575;28;20044;-48
2020/12/29 09:28:08;;;;;;;40.13;19.58;;;4.30;93.90;;;;;;5091521;28;20047;-48
2020/12/29 09:30:34;;;;;;;44.15;21.08;;;4.30;93.90;;;;;;5096257;28;20086;-48
2020/12/29 09:33:03;;;;;;;40.22;20.02;;;4.30;93.90;;;;;;5092124;28;20062;-49
2020/12/29 09:35:28;;;;;;;35.55;19.23;;;4.30;93.90;;;;;;5096706;28;20036;-48
2020/12/29 09:37:56;;;;;;;37.03;18.85;;;4.30;93.80;;;;;;5092895;28;20500;-47
2020/12/29 09:40:22;;;;;;;35.08;18.05;;;4.30;93.90;;;;;;5090877;28;20036;-47
2020/12/29 09:42:50;;;;;;;36.42;18.17;;;4.40;93.80;;;;;;5087218;28;20066;-47
2020/12/29 09:45:18;;;;;;;34.60;18.40;;;4.40;93.80;;;;;;5091261;28;20040;-47
2020/12/29 09:47:44;;;;;;;31.58;17.38;;;4.40;93.80;;;;;;5089161;28;20048;-47
2020/12/29 09:50:09;;;;;;;30.50;16.75;;;4.40;93.70;;;;;;5089851;28;20071;-47
2020/12/29 09:52:35;;;;;;;29.42;16.48;;;4.40;93.60;;;;;;5090699;28;20036;-47
2020/12/29 09:55:03;;;;;;;27.48;15.63;;;4.40;93.30;;;;;;5086398;28;20040;-47
2020/12/29 09:57:29;;;;;;;30.40;16.52;;;4.40;93.40;;;;;;5089920;28;20119;-49
2020/12/29 09:59:54;;;;;;;31.92;16.98;;;4.40;93.30;;;;;;5090607;28;20112;-47
2020/12/29 10:02:21;;;;;;;31.30;17.73;;;4.40;93.30;;;;;;5089973;28;20093;-46
2020/12/29 10:04:46;;;;;;;32.05;18.17;;;4.50;93.40;;;;;;5098407;28;20127;-48
2020/12/29 10:07:12;;;;;;;33.47;18.02;;;4.50;93.50;;;;;;5097820;28;20082;-47
2020/12/29 10:09:38;;;;;;;29.63;15.95;;;4.50;93.60;;;;;;5100127;28;20545;-46
2020/12/29 10:12:03;;;;;;;28.50;15.90;;;4.50;93.50;;;;;;5101259;28;20033;-50
2020/12/29 10:14:29;;;;;;;26.27;15.50;;;4.60;93.50;;;;;;5096341;28;20040;-48
2020/12/29 10:16:55;;;;;;;26.33;15.60;;;4.50;93.30;;;;;;5077558;28;20516;-48
2020/12/29 10:19:20;;;;;;;28.10;16.38;;;4.50;93.10;;;;;;5081203;28;20048;-48
2020/12/29 10:21:53;;;;;;;27.25;15.32;;;4.50;93.10;;;;;;5094976;28;20047;-48
2020/12/29 10:24:20;;;;;;;28.20;15.70;;;4.50;93.10;;;;;;5091650;28;20546;-47
2020/12/29 10:26:49;;;;;;;28.75;16.60;;;4.50;93.10;;;;;;5093037;28;20037;-47
2020/12/29 10:29:15;;;;;;;25.63;14.77;;;4.50;93.10;;;;;;5089929;28;20040;-47
2020/12/29 10:31:41;;;;;;;26.42;14.77;;;4.50;93.10;;;;;;5090308;28;20040;-48
2020/12/29 10:34:06;;;;;;;25.58;13.60;;;4.50;93.10;;;;;;5090407;28;20040;-47
2020/12/29 10:36:34;;;;;;;22.15;13.73;;;4.50;92.90;;;;;;5090533;28;20071;-47
2020/12/29 10:39:00;;;;;;;24.77;14.60;;;4.50;92.90;;;;;;5090773;28;20044;-47
2020/12/29 10:41:29;;;;;;;22.13;13.45;;;4.50;92.80;;;;;;5078058;28;20756;-47
2020/12/29 10:43:56;;;;;;;25.60;14.85;;;4.50;92.90;;;;;;5090318;28;20043;-47
2020/12/29 10:46:23;;;;;;;26.60;15.02;;;4.50;93.00;;;;;;5091190;28;20038;-47
2020/12/29 10:48:49;;;;;;;27.45;15.88;;;4.50;93.00;;;;;;5090779;28;20036;-47
2020/12/29 10:51:18;;;;;;;23.30;14.25;;;4.50;93.00;;;;;;5090565;28;20492;-47
2020/12/29 10:53:45;;;;;;;24.08;14.50;;;4.50;93.00;;;;;;5090160;28;20085;-48
2020/12/29 10:56:10;;;;;;;27.73;14.95;;;4.50;93.20;;;;;;5090186;28;20523;-48
2020/12/29 10:58:42;;;;;;;24.13;15.43;;;4.50;92.90;;;;;;5093515;28;20075;-47
2020/12/29 11:01:13;;;;;;;27.75;15.55;;;4.60;93.00;;;;;;5092573;28;20044;-48
2020/12/29 11:03:39;;;;;;;25.63;15.25;;;4.60;93.10;;;;;;5091520;28;20035;-47
2020/12/29 11:06:13;;;;;;;26.15;14.93;;;4.60;93.00;;;;;;5075611;28;20048;-49
2020/12/29 11:08:39;;;;;;;29.30;15.98;;;4.50;93.00;;;;;;5075682;28;20161;-47
2020/12/29 11:11:05;;;;;;;25.23;14.90;;;4.50;92.90;;;;;;5094372;28;20063;-48
2020/12/29 11:13:31;;;;;;;26.52;14.25;;;4.50;93.00;;;;;;5091667;28;20040;-47
2020/12/29 11:15:58;;;;;;;26.20;14.68;;;4.50;93.00;;;;;;5096179;28;20047;-47
2020/12/29 11:18:25;;;;;;;23.23;13.90;;;4.50;93.00;;;;;;5079843;28;20048;-48
2020/12/29 11:20:53;;;;;;;21.67;13.65;;;4.50;93.10;;;;;;5099327;28;20176;-48
2020/12/29 11:23:19;;;;;;;21.15;12.65;;;4.50;93.00;;;;;;5096569;28;20123;-47
2020/12/29 11:25:45;;;;;;;21.20;12.77;;;4.40;92.90;;;;;;5096675;28;20463;-47
2020/12/29 11:28:11;;;;;;;21.77;12.88;;;4.40;93.00;;;;;;5068877;28;20115;-48
2020/12/29 11:30:37;;;;;;;19.40;12.65;;;4.40;93.10;;;;;;5096918;28;20093;-47
2020/12/29 11:33:03;;;;;;;19.70;12.43;;;4.30;93.10;;;;;;5096663;28;20567;-47
2020/12/29 11:35:29;;;;;;;19.13;11.35;;;4.40;93.20;;;;;;5095107;28;20154;-47
2020/12/29 11:37:55;;;;;;;16.73;10.63;;;4.40;93.20;;;;;;5096000;28;20061;-47
2020/12/29 11:40:25;;;;;;;16.88;10.20;;;4.30;93.10;;;;;;5096570;28;20044;-48
2020/12/29 11:42:51;;;;;;;14.45;9.35;;;4.30;93.10;;;;;;5095497;28;20036;-50
2020/12/29 11:45:17;;;;;;;14.55;9.20;;;4.30;93.00;;;;;;5094151;28;20052;-48
2020/12/29 11:47:45;;;;;;;14.57;8.82;;;4.30;93.00;;;;;;5092401;28;20040;-48
2020/12/29 11:50:10;;;;;;;13.05;8.25;;;4.20;93.10;;;;;;5093523;28;20048;-48
2020/12/29 11:52:36;;;;;;;14.40;8.45;;;4.20;93.10;;;;;;5091948;28;20515;-47
2020/12/29 11:55:02;;;;;;;12.75;7.80;;;4.20;93.20;;;;;;5093141;28;20063;-48
2020/12/29 11:57:28;;;;;;;12.60;7.68;;;4.20;93.20;;;;;;5093913;28;20404;-48
2020/12/29 11:59:53;;;;;;;10.25;6.50;;;4.20;93.10;;;;;;5092895;28;20036;-48
2020/12/29 12:02:19;;;;;;;10.57;5.72;;;4.20;92.90;;;;;;5092698;28;20036;-47
2020/12/29 12:04:45;;;;;;;9.60;5.93;;;4.20;93.00;;;;;;5093631;28;20584;-48
2020/12/29 12:07:10;;;;;;;10.48;5.20;;;4.10;93.00;;;;;;5091231;28;20032;-48
2020/12/29 12:09:40;;;;;;;9.02;5.65;;;4.20;92.70;;;;;;5093555;28;20040;-47
2020/12/29 12:12:06;;;;;;;8.35;4.90;;;4.10;93.00;;;;;;5092481;28;20070;-48
2020/12/29 12:14:32;;;;;;;8.32;5.07;;;4.10;93.00;;;;;;5092512;28;20059;-47
2020/12/29 12:16:58;;;;;;;7.60;4.88;;;4.10;93.10;;;;;;5092275;28;20044;-49
2020/12/29 12:19:24;;;;;;;7.65;4.47;;;4.10;93.10;;;;;;5092602;28;20063;-48
2020/12/29 12:21:50;;;;;;;6.85;4.38;;;4.10;93.00;;;;;;5092174;28;20040;-47
2020/12/29 12:24:15;;;;;;;8.00;4.40;;;4.10;93.00;;;;;;5092481;28;20048;-49
2020/12/29 12:26:41;;;;;;;8.52;4.65;;;4.10;93.10;;;;;;5093538;28;20038;-48
2020/12/29 12:29:06;;;;;;;6.55;3.97;;;4.10;93.10;;;;;;5091520;28;20068;-48
2020/12/29 12:31:32;;;;;;;7.32;4.22;;;4.10;93.10;;;;;;5092840;28;20120;-49
2020/12/29 12:33:58;;;;;;;6.88;4.25;;;4.10;93.00;;;;;;5091349;28;20086;-46
2020/12/29 12:36:23;;;;;;;6.97;4.30;;;4.10;93.00;;;;;;5092083;28;20097;-48
2020/12/29 12:38:49;;;;;;;6.70;4.30;;;4.10;93.10;;;;;;5092440;28;20043;-47
2020/12/29 12:41:15;;;;;;;6.93;4.28;;;4.10;93.20;;;;;;5092236;28;20039;-48
2020/12/29 12:43:43;;;;;;;7.32;4.60;;;4.20;93.00;;;;;;5093904;28;20038;-48